Kelly USA, Texas
Current Conditions -  °F | °C
As of 11:58 AM on Thursday 23 Oct 2014 (Local Time) from KSKF Reporting Station
Scattered Clouds Scattered Clouds  
Wind Chill: 78°   Ceiling: Unl
Heat Index: 79°   Visibility: 10mi
Dew Point: 59°   Wind: 1mph
Humidity: 52%   Direction: NA
Pressure: 30.14"   Gusts: NA
Location:  29.3853°N, 98.6099°W
Report Text: KSKF 231658Z AUTO VRB01KT 10SM SCT110 25/15 A3014 RMK AO2 SLP200 T02530148 $
Loading
Personal Weather Stations






























Interactive Weather Map
Tropical Storm Tracking
New forecast layout! Learn more

10-Day Weather Forecast

Advertisements
Track Severe Weather on mobile